Time,TemperatureF,DewpointF,PressureIn,WindDirection,WindDirectionDegrees,WindSpeedMPH,WindSpeedGustMPH,Humidity,HourlyPrecipIn,Conditions,Clouds,dailyrainin,SoftwareType,DateUTC
2013-08-26 00:14:00,59.4,54.0,20.58,SSE,150,0.0,4.0,81,0.00,,,0.00,weatherlink.com 1.10,2013-08-26 06:14:00,
2013-08-26 00:29:00,59.0,53.0,20.58,SSE,151,0.0,5.0,80,0.00,,,0.00,weatherlink.com 1.10,2013-08-26 06:29:00,
2013-08-26 00:44:00,59.0,53.0,20.58,SSE,151,0.0,2.0,80,0.00,,,0.00,weatherlink.com 1.10,2013-08-26 06:44:00,
2013-08-26 00:59:00,59.0,53.0,20.58,SSE,151,2.0,6.0,80,0.00,,,0.00,weatherlink.com 1.10,2013-08-26 06:59:00,
2013-08-26 01:14:00,58.5,52.0,20.58,SSE,151,1.0,4.0,80,0.00,,,0.00,weatherlink.com 1.10,2013-08-26 07:14:00,
2013-08-26 01:29:00,58.4,52.0,20.58,SSE,151,3.0,6.0,78,0.00,,,0.00,weatherlink.com 1.10,2013-08-26 07:29:00,
2013-08-26 01:44:00,58.4,51.0,20.58,SSE,151,2.0,6.0,77,0.00,,,0.00,weatherlink.com 1.10,2013-08-26 07:44:00,
2013-08-26 01:59:00,58.4,51.0,20.58,SSE,150,0.0,4.0,77,0.00,,,0.00,weatherlink.com 1.10,2013-08-26 07:59:00,
2013-08-26 02:14:00,57.6,51.0,20.58,SSE,150,3.0,4.0,79,0.00,,,0.00,weatherlink.com 1.10,2013-08-26 08:14:00,
2013-08-26 02:29:00,56.9,50.0,20.58,SSE,150,0.0,0.0,79,0.00,,,0.00,weatherlink.com 1.10,2013-08-26 08:29:00,
2013-08-26 02:44:00,56.0,51.0,20.58,SSE,151,3.0,3.0,82,0.00,,,0.00,weatherlink.com 1.10,2013-08-26 08:44:00,
2013-08-26 02:59:00,56.5,51.0,20.58,SSE,150,1.0,4.0,81,0.00,,,0.00,weatherlink.com 1.10,2013-08-26 08:59:00,
2013-08-26 03:14:00,57.0,51.0,20.59,SSE,150,0.0,5.0,80,0.00,,,0.00,weatherlink.com 1.10,2013-08-26 09:14:00,
2013-08-26 03:29:00,56.2,50.0,20.58,SSE,151,0.0,2.0,80,0.00,,,0.00,weatherlink.com 1.10,2013-08-26 09:29:00,
2013-08-26 03:44:00,55.8,50.0,20.58,SSE,151,2.0,2.0,81,0.00,,,0.00,weatherlink.com 1.10,2013-08-26 09:44:00,
2013-08-26 03:59:00,55.8,50.0,20.58,SSE,151,0.0,3.0,81,0.00,,,0.00,weatherlink.com 1.10,2013-08-26 09:59:00,
2013-08-26 04:14:00,55.9,50.0,20.58,SSE,150,1.0,3.0,81,0.00,,,0.00,weatherlink.com 1.10,2013-08-26 10:14:00,
2013-08-26 04:29:00,55.8,50.0,20.58,SSE,151,2.0,4.0,81,0.00,,,0.00,weatherlink.com 1.10,2013-08-26 10:29:00,
2013-08-26 04:44:00,55.8,50.0,20.58,SSE,150,0.0,4.0,81,0.00,,,0.00,weatherlink.com 1.10,2013-08-26 10:44:00,
2013-08-26 05:00:00,55.4,50.0,20.58,SSE,150,0.0,1.0,82,0.00,,,0.00,weatherlink.com 1.10,2013-08-26 11:00:00,
2013-08-26 05:15:00,54.8,50.0,20.58,SSE,150,0.0,3.0,83,0.00,,,0.00,weatherlink.com 1.10,2013-08-26 11:15:00,
2013-08-26 05:30:00,54.0,49.0,20.59,SSE,150,0.0,2.0,84,0.00,,,0.00,weatherlink.com 1.10,2013-08-26 11:30:00,
2013-08-26 05:45:00,53.3,49.0,20.59,SSE,150,0.0,0.0,85,0.00,,,0.00,weatherlink.com 1.10,2013-08-26 11:45:00,
2013-08-26 06:00:00,53.6,50.0,20.59,SSE,150,0.0,5.0,88,0.00,,,0.00,weatherlink.com 1.10,2013-08-26 12:00:00,
2013-08-26 06:15:00,53.6,50.0,20.59,SSE,150,0.0,2.0,86,0.00,,,0.00,weatherlink.com 1.10,2013-08-26 12:15:00,
2013-08-26 06:30:00,53.7,50.0,20.59,SSE,151,0.0,1.0,87,0.00,,,0.00,weatherlink.com 1.10,2013-08-26 12:30:00,
2013-08-26 06:45:00,54.0,51.0,20.59,SSE,150,0.0,0.0,88,0.00,,,0.00,weatherlink.com 1.10,2013-08-26 12:45:00,
2013-08-26 07:00:00,54.9,52.0,20.59,SSE,151,0.0,0.0,88,0.00,,,0.00,weatherlink.com 1.10,2013-08-26 13:00:00,
2013-08-26 07:15:00,56.1,52.0,20.59,SSE,151,0.0,0.0,87,0.00,,,0.00,weatherlink.com 1.10,2013-08-26 13:15:00,
2013-08-26 07:30:00,57.7,53.0,20.59,SSE,151,0.0,0.0,85,0.00,,,0.00,weatherlink.com 1.10,2013-08-26 13:30:00,
2013-08-26 07:45:00,59.0,54.0,20.59,SSE,151,0.0,1.0,82,0.00,,,0.00,weatherlink.com 1.10,2013-08-26 13:45:00,
2013-08-26 08:00:00,59.8,53.0,20.60,SSE,151,0.0,1.0,78,0.00,,,0.00,weatherlink.com 1.10,2013-08-26 14:00:00,
2013-08-26 08:15:00,61.1,53.0,20.60,SSE,151,0.0,0.0,74,0.00,,,0.00,weatherlink.com 1.10,2013-08-26 14:15:00,
2013-08-26 08:30:00,61.6,53.0,20.60,SSE,151,0.0,2.0,74,0.00,,,0.00,weatherlink.com 1.10,2013-08-26 14:30:00,
2013-08-26 08:45:00,62.7,54.0,20.60,SSE,150,0.0,4.0,74,0.00,,,0.00,weatherlink.com 1.10,2013-08-26 14:45:00,
2013-08-26 09:00:00,63.6,55.0,20.60,SSE,151,0.0,1.0,74,0.00,,,0.00,weatherlink.com 1.10,2013-08-26 15:00:00,
2013-08-26 09:15:00,64.5,55.0,20.60,SSE,150,0.0,1.0,71,0.00,,,0.00,weatherlink.com 1.10,2013-08-26 15:15:00,
2013-08-26 09:30:00,66.1,55.0,20.60,SSE,150,0.0,2.0,68,0.00,,,0.00,weatherlink.com 1.10,2013-08-26 15:30:00,
2013-08-26 09:45:00,67.1,55.0,20.60,SSE,151,1.0,3.0,65,0.00,,,0.00,weatherlink.com 1.10,2013-08-26 15:45:00,
2013-08-26 10:00:00,68.0,56.0,20.60,SSE,151,0.0,4.0,65,0.00,,,0.00,weatherlink.com 1.10,2013-08-26 16:00:00,
2013-08-26 10:15:00,69.1,55.0,20.60,SSE,151,0.0,3.0,61,0.00,,,0.00,weatherlink.com 1.10,2013-08-26 16:15:00,
2013-08-26 10:30:00,70.1,55.0,20.60,SSE,151,0.0,5.0,59,0.00,,,0.00,weatherlink.com 1.10,2013-08-26 16:30:00,
2013-08-26 10:45:00,70.8,57.0,20.60,SSE,150,0.0,6.0,62,0.00,,,0.00,weatherlink.com 1.10,2013-08-26 16:45:00,
2013-08-26 11:00:00,71.3,55.0,20.60,SSE,153,0.0,6.0,57,0.00,,,0.00,weatherlink.com 1.10,2013-08-26 17:00:00,
2013-08-26 11:15:00,71.5,53.0,20.60,SSE,167,0.0,7.0,53,0.00,,,0.00,weatherlink.com 1.10,2013-08-26 17:15:00,
2013-08-26 11:30:00,72.1,54.0,20.59,SSE,167,0.0,4.0,54,0.00,,,0.00,weatherlink.com 1.10,2013-08-26 17:30:00,
2013-08-26 11:46:00,73.0,54.0,20.58,South,182,2.0,8.0,52,0.00,,,0.00,weatherlink.com 1.10,2013-08-26 17:46:00,
2013-08-26 12:01:00,74.3,53.0,20.57,SSW,199,3.0,6.0,47,0.00,,,0.00,weatherlink.com 1.10,2013-08-26 18:01:00,
2013-08-26 12:16:00,75.1,55.0,20.57,South,188,1.0,5.0,49,0.00,,,0.00,weatherlink.com 1.10,2013-08-26 18:16:00,
2013-08-26 12:31:00,76.6,55.0,20.56,SSE,152,3.0,6.0,47,0.00,,,0.00,weatherlink.com 1.10,2013-08-26 18:31:00,
2013-08-26 12:46:00,77.3,55.0,20.55,SE,138,0.0,6.0,46,0.00,,,0.00,weatherlink.com 1.10,2013-08-26 18:46:00,
2013-08-26 13:01:00,77.1,53.0,20.54,NNE,15,0.0,6.0,43,0.00,,,0.00,weatherlink.com 1.10,2013-08-26 19:01:00,
2013-08-26 13:16:00,77.4,55.0,20.54,WNW,301,0.0,4.0,46,0.00,,,0.00,weatherlink.com 1.10,2013-08-26 19:16:00,
2013-08-26 13:31:00,79.3,54.0,20.54,WNW,303,1.0,6.0,41,0.00,,,0.00,weatherlink.com 1.10,2013-08-26 19:31:00,
2013-08-26 13:46:00,79.3,52.0,20.53,WNW,290,0.0,5.0,39,0.00,,,0.00,weatherlink.com 1.10,2013-08-26 19:46:00,
2013-08-26 14:01:00,80.3,53.0,20.53,West,275,5.0,8.0,39,0.00,,,0.00,weatherlink.com 1.10,2013-08-26 20:01:00,
2013-08-26 14:16:00,80.8,52.0,20.52,West,275,0.0,7.0,37,0.00,,,0.00,weatherlink.com 1.10,2013-08-26 20:16:00,
2013-08-26 14:31:00,80.3,52.0,20.51,West,265,0.0,7.0,37,0.00,,,0.00,weatherlink.com 1.10,2013-08-26 20:31:00,
2013-08-26 14:46:00,79.9,51.0,20.50,West,264,0.0,6.0,36,0.00,,,0.00,weatherlink.com 1.10,2013-08-26 20:46:00,
2013-08-26 15:01:00,80.3,51.0,20.50,West,264,0.0,4.0,36,0.00,,,0.00,weatherlink.com 1.10,2013-08-26 21:01:00,
2013-08-26 15:16:00,82.1,51.0,20.49,West,271,1.0,7.0,34,0.00,,,0.00,weatherlink.com 1.10,2013-08-26 21:16:00,
2013-08-26 15:31:00,80.8,50.0,20.49,WSW,256,0.0,6.0,34,0.00,,,0.00,weatherlink.com 1.10,2013-08-26 21:31:00,
2013-08-26 15:46:00,78.7,53.0,20.49,SE,138,2.0,11.0,41,0.00,,,0.00,weatherlink.com 1.10,2013-08-26 21:46:00,
2013-08-26 16:01:00,73.7,51.0,20.49,East,101,5.0,13.0,45,0.00,,,0.00,weatherlink.com 1.10,2013-08-26 22:01:00,
2013-08-26 16:16:00,73.9,49.0,20.48,ESE,111,3.0,13.0,42,0.00,,,0.00,weatherlink.com 1.10,2013-08-26 22:16:00,
2013-08-26 16:31:00,75.9,51.0,20.47,SE,133,2.0,10.0,42,0.00,,,0.00,weatherlink.com 1.10,2013-08-26 22:31:00,
2013-08-26 16:47:00,77.1,53.0,20.47,SSE,154,5.0,9.0,43,0.00,,,0.00,weatherlink.com 1.10,2013-08-26 22:47:00,
2013-08-26 17:02:00,79.1,52.0,20.46,SSE,151,5.0,9.0,39,0.00,,,0.00,weatherlink.com 1.10,2013-08-26 23:02:00,
2013-08-26 17:17:00,78.2,55.0,20.46,SSE,167,6.0,10.0,45,0.00,,,0.00,weatherlink.com 1.10,2013-08-26 23:17:00,
2013-08-26 17:32:00,75.6,54.0,20.47,South,180,6.0,12.0,47,0.00,,,0.00,weatherlink.com 1.10,2013-08-26 23:32:00,
2013-08-26 17:47:00,73.4,51.0,20.46,South,179,8.0,18.0,46,0.00,,,0.00,weatherlink.com 1.10,2013-08-26 23:47:00,
2013-08-26 18:02:00,71.7,51.0,20.46,SSE,164,13.0,21.0,48,0.00,,,0.00,weatherlink.com 1.10,2013-08-27 00:02:00,
2013-08-26 18:17:00,71.3,50.0,20.46,South,186,6.0,16.0,48,0.00,,,0.00,weatherlink.com 1.10,2013-08-27 00:17:00,
2013-08-26 18:32:00,71.2,50.0,20.46,South,186,11.0,19.0,47,0.00,,,0.00,weatherlink.com 1.10,2013-08-27 00:32:00,
2013-08-26 18:47:00,71.2,50.0,20.46,SSE,153,5.0,12.0,48,0.00,,,0.00,weatherlink.com 1.10,2013-08-27 00:47:00,
2013-08-26 19:02:00,71.3,50.0,20.45,SSE,155,8.0,11.0,47,0.00,,,0.00,weatherlink.com 1.10,2013-08-27 01:02:00,
2013-08-26 19:17:00,71.8,50.0,20.45,SSE,161,7.0,10.0,47,0.00,,,0.00,weatherlink.com 1.10,2013-08-27 01:17:00,
2013-08-26 19:32:00,72.3,51.0,20.45,SSE,153,2.0,10.0,47,0.00,,,0.00,weatherlink.com 1.10,2013-08-27 01:32:00,
2013-08-26 19:47:00,72.0,51.0,20.45,SSE,163,7.0,11.0,47,0.00,,,0.00,weatherlink.com 1.10,2013-08-27 01:47:00,
2013-08-26 20:02:00,71.7,51.0,20.45,SSE,160,4.0,10.0,48,0.00,,,0.00,weatherlink.com 1.10,2013-08-27 02:02:00,
2013-08-26 20:17:00,71.3,50.0,20.45,SSE,159,6.0,10.0,48,0.00,,,0.00,weatherlink.com 1.10,2013-08-27 02:17:00,
2013-08-26 20:32:00,71.0,50.0,20.45,SSE,163,9.0,10.0,48,0.00,,,0.00,weatherlink.com 1.10,2013-08-27 02:32:00,
2013-08-26 20:47:00,70.3,50.0,20.45,SSE,159,5.0,9.0,48,0.00,,,0.00,weatherlink.com 1.10,2013-08-27 02:47:00,
2013-08-26 21:02:00,70.2,49.0,20.46,SSE,153,0.0,7.0,48,0.00,,,0.00,weatherlink.com 1.10,2013-08-27 03:02:00,
2013-08-26 21:17:00,69.2,51.0,20.47,SSE,153,0.0,0.0,52,0.00,,,0.00,weatherlink.com 1.10,2013-08-27 03:17:00,
2013-08-26 21:32:00,67.3,50.0,20.48,SSE,153,0.0,1.0,55,0.00,,,0.00,weatherlink.com 1.10,2013-08-27 03:32:00,
2013-08-26 21:47:00,65.0,50.0,20.48,SSE,153,0.0,1.0,58,0.00,,,0.00,weatherlink.com 1.10,2013-08-27 03:47:00,
2013-08-26 22:02:00,63.4,50.0,20.47,SSE,153,0.0,3.0,61,0.00,,,0.00,weatherlink.com 1.10,2013-08-27 04:02:00,
2013-08-26 22:17:00,63.5,50.0,20.48,SSE,153,3.0,4.0,61,0.00,,,0.00,weatherlink.com 1.10,2013-08-27 04:17:00,
2013-08-26 22:32:00,62.9,49.0,20.49,SSE,153,0.0,2.0,61,0.00,,,0.00,weatherlink.com 1.10,2013-08-27 04:32:00,
2013-08-26 22:47:00,62.4,49.0,20.49,SSE,153,1.0,2.0,62,0.00,,,0.00,weatherlink.com 1.10,2013-08-27 04:47:00,
2013-08-26 23:02:00,62.4,49.0,20.50,SSE,153,0.0,1.0,62,0.00,,,0.00,weatherlink.com 1.10,2013-08-27 05:02:00,
2013-08-26 23:17:00,62.0,50.0,20.50,SSE,153,0.0,1.0,64,0.00,,,0.00,weatherlink.com 1.10,2013-08-27 05:17:00,
2013-08-26 23:32:00,61.5,49.0,20.50,SSE,153,1.0,3.0,64,0.00,,,0.00,weatherlink.com 1.10,2013-08-27 05:32:00,
2013-08-26 23:47:00,60.8,49.0,20.50,SSE,153,1.0,3.0,66,0.00,,,0.00,weatherlink.com 1.10,2013-08-27 05:47:00,